Time;durP1;ratioP1;P1;durP2;ratioP2;P2;SDS_P1;SDS_P2;PMS_P1;PMS_P2;Temp;Humidity;BMP_temperature;BMP_pressure;BME280_temperature;BME280_humidity;BME280_pressure;Samples;Min_cycle;Max_cycle;Signal;HPM_P1;HPM_P2
2024/01/23 00:00:26;;;;;;;19.88;2.88;;;7.00;99.90;;;;;;6269458;22;20567;-76
2024/01/23 00:02:52;;;;;;;17.98;3.58;;;6.90;99.90;;;;;;6269436;22;20437;-76
2024/01/23 00:05:17;;;;;;;16.35;3.75;;;6.90;99.90;;;;;;6271217;22;20024;-77
2024/01/23 00:07:43;;;;;;;21.38;3.20;;;6.90;99.90;;;;;;6269396;22;20024;-76
2024/01/23 00:10:09;;;;;;;17.23;3.15;;;6.90;99.90;;;;;;6268462;22;20053;-77
2024/01/23 00:12:35;;;;;;;19.55;3.60;;;6.90;99.90;;;;;;6270934;22;20067;-77
2024/01/23 00:15:00;;;;;;;20.08;3.53;;;6.80;99.90;;;;;;6271183;22;20007;-76
2024/01/23 00:17:26;;;;;;;21.73;3.75;;;6.90;99.90;;;;;;6270148;22;20012;-77
2024/01/23 00:19:52;;;;;;;19.95;3.70;;;6.80;99.90;;;;;;6271264;22;20132;-76
2024/01/23 00:22:18;;;;;;;17.85;3.13;;;6.80;99.90;;;;;;6270155;22;20012;-77
2024/01/23 00:24:44;;;;;;;16.10;3.13;;;6.80;99.90;;;;;;6269931;22;20344;-76
2024/01/23 00:27:09;;;;;;;19.17;2.65;;;6.90;99.90;;;;;;6269369;22;20099;-77
2024/01/23 00:29:35;;;;;;;20.13;3.15;;;6.80;99.90;;;;;;6268554;22;20101;-76
2024/01/23 00:32:02;;;;;;;18.30;2.97;;;6.80;99.90;;;;;;6270205;22;20482;-76
2024/01/23 00:34:27;;;;;;;20.08;3.00;;;6.80;99.90;;;;;;6268706;22;20046;-76
2024/01/23 00:36:53;;;;;;;19.02;3.38;;;6.80;99.90;;;;;;6271171;22;20015;-76
2024/01/23 00:39:19;;;;;;;15.38;2.97;;;6.80;99.90;;;;;;6271768;22;20015;-76
2024/01/23 00:41:45;;;;;;;23.55;4.57;;;6.80;99.90;;;;;;6272117;22;20065;-77
2024/01/23 00:44:11;;;;;;;17.40;3.15;;;6.80;99.90;;;;;;6270339;22;20111;-77
2024/01/23 00:46:36;;;;;;;22.67;3.40;;;6.80;99.90;;;;;;6270351;22;20014;-77
2024/01/23 00:49:02;;;;;;;22.67;4.57;;;6.80;99.90;;;;;;6272150;22;20428;-77
2024/01/23 00:51:28;;;;;;;17.80;3.15;;;6.90;99.90;;;;;;6270391;22;20230;-78
2024/01/23 00:53:54;;;;;;;20.65;3.35;;;6.80;99.90;;;;;;6271469;22;20064;-77
2024/01/23 00:56:20;;;;;;;24.00;3.40;;;6.80;99.90;;;;;;6271839;22;20043;-77
2024/01/23 00:58:45;;;;;;;20.25;3.47;;;6.90;99.90;;;;;;6269594;22;20089;-77
2024/01/23 01:01:11;;;;;;;16.55;3.10;;;6.80;99.90;;;;;;6270563;22;20016;-77
2024/01/23 01:03:37;;;;;;;22.48;3.30;;;6.90;99.90;;;;;;6270059;22;20050;-77
2024/01/23 01:06:03;;;;;;;19.10;3.05;;;6.80;99.90;;;;;;6270379;22;20019;-77
2024/01/23 01:08:29;;;;;;;23.17;3.30;;;6.80;99.90;;;;;;6244037;22;20116;-77
2024/01/23 01:10:54;;;;;;;18.98;3.38;;;6.80;99.90;;;;;;6269705;22;20020;-77
2024/01/23 01:13:20;;;;;;;21.80;2.97;;;6.70;99.90;;;;;;6269079;22;20026;-77
2024/01/23 01:15:46;;;;;;;15.38;3.08;;;6.80;99.90;;;;;;6270870;22;20023;-77
2024/01/23 01:18:11;;;;;;;16.48;3.10;;;6.80;99.90;;;;;;6271066;22;20023;-77
2024/01/23 01:20:37;;;;;;;22.55;3.30;;;6.80;99.90;;;;;;6270166;22;20050;-77
2024/01/23 01:23:03;;;;;;;18.67;3.20;;;6.70;99.90;;;;;;6271481;22;20086;-77
2024/01/23 01:25:29;;;;;;;23.75;3.40;;;6.70;99.90;;;;;;6244142;22;20043;-77
2024/01/23 01:27:54;;;;;;;19.10;3.63;;;6.70;99.90;;;;;;6268413;22;20020;-77
2024/01/23 01:30:21;;;;;;;13.38;2.88;;;6.60;99.90;;;;;;6269123;22;20102;-77
2024/01/23 01:32:47;;;;;;;17.67;2.95;;;6.60;99.90;;;;;;6268616;22;20019;-77
2024/01/23 01:35:12;;;;;;;19.48;3.50;;;6.60;99.90;;;;;;6270167;22;20007;-77
2024/01/23 01:37:39;;;;;;;16.67;3.22;;;6.50;99.90;;;;;;6270805;22;20054;-77
2024/01/23 01:40:05;;;;;;;23.40;3.72;;;6.50;99.90;;;;;;6271617;22;20019;-77
2024/01/23 01:42:30;;;;;;;19.50;3.38;;;6.50;99.90;;;;;;6270453;22;20620;-77
2024/01/23 01:44:56;;;;;;;17.77;3.17;;;6.40;99.90;;;;;;6269186;22;20015;-77
2024/01/23 01:47:22;;;;;;;22.70;3.40;;;6.30;99.90;;;;;;6269489;22;20023;-77
2024/01/23 01:49:48;;;;;;;19.77;3.80;;;6.30;99.90;;;;;;6270726;22;20254;-77
2024/01/23 01:52:14;;;;;;;20.73;3.83;;;6.30;99.90;;;;;;6269314;22;20016;-77
2024/01/23 01:54:41;;;;;;;21.00;4.07;;;6.30;99.90;;;;;;6270879;22;20448;-77
2024/01/23 01:57:07;;;;;;;23.80;3.72;;;6.30;99.90;;;;;;6243301;22;20027;-77
2024/01/23 01:59:33;;;;;;;21.95;3.45;;;6.30;99.90;;;;;;6268545;22;20012;-77
2024/01/23 02:02:00;;;;;;;26.73;3.78;;;6.30;99.90;;;;;;6242813;22;20019;-77
2024/01/23 02:04:25;;;;;;;17.30;3.20;;;6.30;99.90;;;;;;6268840;22;20448;-77
2024/01/23 02:06:52;;;;;;;18.57;4.20;;;6.20;99.90;;;;;;6268475;22;20027;-77
2024/01/23 02:09:17;;;;;;;22.02;3.83;;;6.30;99.90;;;;;;6270925;22;20231;-77
2024/01/23 02:12:00;;;;;;;29.27;3.78;;;6.30;99.90;;;;;;6271325;22;20065;-77
2024/01/23 02:14:29;;;;;;;21.95;3.75;;;6.20;99.90;;;;;;6267056;22;20095;-77
2024/01/23 02:16:54;;;;;;;21.70;4.15;;;6.30;99.90;;;;;;6268506;22;20099;-77
2024/01/23 02:19:20;;;;;;;17.83;3.73;;;6.30;99.90;;;;;;6269026;22;20020;-77
2024/01/23 02:21:46;;;;;;;24.42;3.92;;;6.30;99.90;;;;;;6269553;22;20277;-77
2024/01/23 02:24:11;;;;;;;20.27;3.22;;;6.30;99.90;;;;;;6267995;22;20073;-76
2024/01/23 02:26:37;;;;;;;23.97;4.37;;;6.30;99.90;;;;;;6269704;22;20019;-76
2024/01/23 02:29:03;;;;;;;22.23;3.58;;;6.30;99.90;;;;;;6269646;22;20050;-76
2024/01/23 02:31:28;;;;;;;20.58;4.00;;;6.40;99.90;;;;;;6268943;22;20372;-76
2024/01/23 02:33:54;;;;;;;19.83;3.55;;;6.30;99.90;;;;;;6269906;22;20015;-76
2024/01/23 02:36:19;;;;;;;22.25;3.90;;;6.30;99.90;;;;;;6267960;22;20023;-76
2024/01/23 02:38:45;;;;;;;21.65;3.55;;;6.40;99.90;;;;;;6268534;22;20365;-76
2024/01/23 02:41:12;;;;;;;19.97;3.83;;;6.30;99.90;;;;;;6269562;22;20015;-76
2024/01/23 02:43:46;;;;;;;21.27;3.28;;;6.40;99.90;;;;;;6269360;22;20230;-76
2024/01/23 02:46:21;;;;;;;24.27;3.75;;;6.40;99.90;;;;;;6268777;22;20016;-76
2024/01/23 02:48:46;;;;;;;23.40;3.87;;;6.40;99.90;;;;;;6269715;22;20023;-76
2024/01/23 02:51:19;;;;;;;28.60;4.45;;;6.50;99.90;;;;;;6268269;22;20007;-76
2024/01/23 02:53:45;;;;;;;25.10;4.57;;;6.50;99.90;;;;;;6267959;22;20676;-76
2024/01/23 02:56:11;;;;;;;22.08;4.68;;;6.60;99.90;;;;;;6266930;22;20098;-76
2024/01/23 02:58:39;;;;;;;22.30;4.25;;;6.60;99.90;;;;;;6267118;22;20484;-76
2024/01/23 03:01:05;;;;;;;20.20;3.55;;;6.60;99.90;;;;;;6269792;22;20012;-76
2024/01/23 03:03:31;;;;;;;19.55;3.28;;;6.60;99.90;;;;;;6266615;22;20016;-77
2024/01/23 03:05:56;;;;;;;24.85;4.47;;;6.70;99.90;;;;;;6266779;22;20023;-76
2024/01/23 03:08:23;;;;;;;23.80;4.10;;;6.70;99.90;;;;;;6243123;22;20023;-76
2024/01/23 03:10:48;;;;;;;;;;;6.80;99.90;;;;;;6242138;22;20018;-77
2024/01/23 03:13:14;;;;;;;27.35;4.13;;;6.80;99.90;;;;;;6268078;22;19918;-77
2024/01/23 03:15:40;;;;;;;28.03;4.10;;;6.80;99.90;;;;;;6269094;22;20026;-77
2024/01/23 03:18:05;;;;;;;24.58;4.07;;;6.80;99.90;;;;;;6272890;22;20081;-77
2024/01/23 03:20:33;;;;;;;23.77;3.80;;;6.80;99.90;;;;;;6270798;22;20463;-76
2024/01/23 03:22:58;;;;;;;24.75;4.35;;;6.80;99.90;;;;;;6272682;22;20223;-77
2024/01/23 03:25:24;;;;;;;22.90;3.97;;;6.70;99.90;;;;;;6269236;22;20023;-77
2024/01/23 03:27:50;;;;;;;25.70;4.57;;;6.80;99.90;;;;;;6271497;22;20019;-77
2024/01/23 03:30:29;;;;;;;;;;;6.80;99.90;;;;;;6273640;22;20500;-76
2024/01/23 03:32:56;;;;;;;25.33;3.90;;;6.80;99.90;;;;;;6272702;22;19918;-76
2024/01/23 03:35:22;;;;;;;25.83;4.47;;;6.80;99.90;;;;;;6271787;22;20012;-76
2024/01/23 03:37:47;;;;;;;21.90;4.57;;;6.80;99.90;;;;;;6272292;22;20047;-78
2024/01/23 03:40:13;;;;;;;27.50;4.07;;;6.80;99.90;;;;;;6269060;22;20070;-77
2024/01/23 03:42:39;;;;;;;26.88;4.00;;;6.70;99.90;;;;;;6270423;22;20012;-77
2024/01/23 03:45:05;;;;;;;26.88;4.47;;;6.70;99.90;;;;;;6269135;22;20059;-76
2024/01/23 03:47:31;;;;;;;18.92;3.90;;;6.80;99.90;;;;;;6272442;22;20019;-77
2024/01/23 03:49:57;;;;;;;20.65;4.32;;;6.70;99.90;;;;;;6270771;22;20460;-77
2024/01/23 03:52:22;;;;;;;24.77;3.80;;;6.80;99.90;;;;;;6270410;22;20015;-75
2024/01/23 03:54:48;;;;;;;27.23;4.25;;;6.80;99.90;;;;;;6269402;22;20331;-75
2024/01/23 03:57:14;;;;;;;25.70;4.65;;;6.80;99.90;;;;;;6269368;22;20082;-76
2024/01/23 03:59:43;;;;;;;29.08;5.55;;;6.90;99.90;;;;;;6272748;22;20057;-76
2024/01/23 04:02:08;;;;;;;22.85;4.30;;;6.90;99.90;;;;;;6272434;22;20095;-77
2024/01/23 04:04:34;;;;;;;22.90;3.67;;;6.90;99.90;;;;;;6272085;22;20058;-76
2024/01/23 04:07:00;;;;;;;26.08;4.10;;;6.90;99.90;;;;;;6272433;22;20235;-76
2024/01/23 04:09:25;;;;;;;22.63;3.75;;;7.00;99.90;;;;;;6269936;22;20047;-76
2024/01/23 04:11:51;;;;;;;25.77;4.70;;;6.90;99.90;;;;;;6270168;22;20015;-76
2024/01/23 04:14:16;;;;;;;23.60;3.90;;;7.00;99.90;;;;;;6269858;22;20274;-76
2024/01/23 04:16:42;;;;;;;22.63;4.32;;;7.00;99.90;;;;;;6245067;22;20718;-77
2024/01/23 04:19:08;;;;;;;25.40;5.18;;;7.00;99.90;;;;;;6270506;22;20043;-77
2024/01/23 04:21:33;;;;;;;22.73;4.70;;;7.10;99.90;;;;;;6270253;22;20016;-77
2024/01/23 04:23:59;;;;;;;28.73;5.07;;;7.10;99.90;;;;;;6269781;22;20090;-77
2024/01/23 04:26:26;;;;;;;33.30;5.63;;;7.10;99.90;;;;;;6272424;22;20054;-76
2024/01/23 04:28:52;;;;;;;23.23;4.07;;;7.10;99.90;;;;;;6271366;22;20053;-77
2024/01/23 04:31:18;;;;;;;29.25;4.70;;;7.10;99.90;;;;;;6244850;22;20087;-77
2024/01/23 04:33:45;;;;;;;27.08;4.57;;;7.20;99.90;;;;;;6269951;22;20015;-77
2024/01/23 04:36:11;;;;;;;31.60;5.00;;;7.20;99.90;;;;;;6270236;22;20015;-77
2024/01/23 04:38:37;;;;;;;20.38;3.95;;;7.20;99.90;;;;;;6271631;22;20008;-76
2024/01/23 04:41:03;;;;;;;23.90;4.63;;;7.20;99.90;;;;;;6272378;22;20097;-77
2024/01/23 04:43:29;;;;;;;30.88;5.32;;;7.20;99.90;;;;;;6271624;22;20011;-77
2024/01/23 04:45:55;;;;;;;22.02;4.10;;;7.20;99.90;;;;;;6272149;22;20397;-77
2024/01/23 04:48:20;;;;;;;24.85;4.35;;;7.20;99.90;;;;;;6269927;22;20106;-76
2024/01/23 04:50:46;;;;;;;30.73;4.60;;;7.20;99.90;;;;;;6269870;22;20047;-77
2024/01/23 04:53:11;;;;;;;23.95;4.28;;;7.30;99.90;;;;;;6243812;22;20439;-76
2024/01/23 04:55:37;;;;;;;27.48;5.05;;;7.20;99.90;;;;;;6244541;22;20042;-76
2024/01/23 04:58:03;;;;;;;26.23;4.60;;;7.30;99.90;;;;;;6269448;22;20022;-76
2024/01/23 05:00:28;;;;;;;23.90;4.57;;;7.30;99.90;;;;;;6269467;22;20023;-76
2024/01/23 05:02:54;;;;;;;33.43;4.53;;;7.30;99.90;;;;;;6272620;22;20019;-76
2024/01/23 05:05:19;;;;;;;29.37;5.13;;;7.30;99.90;;;;;;6270757;22;20361;-76
2024/01/23 05:07:45;;;;;;;33.30;5.70;;;7.30;99.90;;;;;;6271435;22;20253;-75
2024/01/23 05:10:10;;;;;;;27.20;5.18;;;7.20;99.90;;;;;;6272757;22;20433;-76
2024/01/23 05:12:36;;;;;;;28.13;4.68;;;7.30;99.90;;;;;;6300304;22;20026;-76
2024/01/23 05:15:04;;;;;;;29.75;4.38;;;7.30;99.90;;;;;;6274910;22;20011;-76
2024/01/23 05:17:30;;;;;;;26.35;5.10;;;7.30;99.90;;;;;;6274787;22;20461;-76
2024/01/23 05:19:55;;;;;;;;;;;7.30;99.90;;;;;;6275319;22;20364;-76
2024/01/23 05:22:21;;;;;;;27.92;4.22;;;7.30;99.90;;;;;;6273550;22;19911;-75
2024/01/23 05:24:47;;;;;;;30.02;4.85;;;7.30;99.90;;;;;;6275085;22;20019;-76
2024/01/23 05:27:12;;;;;;;31.67;5.20;;;7.30;99.90;;;;;;6272674;22;20026;-76
2024/01/23 05:29:38;;;;;;;28.13;5.17;;;7.30;99.90;;;;;;6272185;22;20568;-76
2024/01/23 05:32:03;;;;;;;21.13;4.50;;;7.30;99.90;;;;;;6273591;22;20269;-76
2024/01/23 05:34:29;;;;;;;21.50;4.00;;;7.30;99.90;;;;;;6274562;22;20225;-76
2024/01/23 05:36:55;;;;;;;36.38;5.65;;;7.30;99.90;;;;;;6273706;22;20015;-76
2024/01/23 05:39:20;;;;;;;27.20;4.82;;;7.30;99.90;;;;;;6271664;22;20019;-76
2024/01/23 05:41:46;;;;;;;30.98;5.15;;;7.20;99.90;;;;;;6274076;22;20018;-76
2024/01/23 05:44:11;;;;;;;33.20;4.97;;;7.10;99.90;;;;;;6273130;22;20019;-76
2024/01/23 05:46:37;;;;;;;33.78;5.47;;;7.10;99.90;;;;;;6275407;22;20245;-75
2024/01/23 05:49:03;;;;;;;30.53;5.93;;;7.10;99.90;;;;;;6275217;22;20016;-76
2024/01/23 05:51:28;;;;;;;26.55;4.72;;;7.00;99.90;;;;;;6274200;22;20258;-76
2024/01/23 05:53:54;;;;;;;32.70;4.73;;;7.00;99.90;;;;;;6274626;22;20023;-76
2024/01/23 05:56:19;;;;;;;33.78;5.57;;;6.90;99.90;;;;;;6274923;22;20532;-76
2024/01/23 05:58:45;;;;;;;32.08;5.68;;;6.90;99.90;;;;;;6273587;22;20025;-75
2024/01/23 06:01:11;;;;;;;28.13;5.40;;;6.90;99.90;;;;;;6274199;22;20082;-75
2024/01/23 06:03:38;;;;;;;;;;;6.80;99.90;;;;;;6268421;22;20459;-76
2024/01/23 06:06:04;;;;;;;36.08;6.13;;;6.80;99.90;;;;;;6270280;22;19911;-75
2024/01/23 06:08:30;;;;;;;33.58;6.45;;;6.80;99.90;;;;;;6268616;22;20023;-75
2024/01/23 06:10:55;;;;;;;34.17;5.43;;;6.70;99.90;;;;;;6269019;22;20069;-75
2024/01/23 06:13:21;;;;;;;35.53;5.88;;;6.70;99.90;;;;;;6270488;22;20011;-76
2024/01/23 06:15:46;;;;;;;31.63;5.87;;;6.60;99.90;;;;;;6270669;22;20012;-76
2024/01/23 06:18:12;;;;;;;32.67;6.13;;;6.60;99.90;;;;;;6270649;22;20599;-76
2024/01/23 06:20:38;;;;;;;37.97;5.53;;;6.50;99.90;;;;;;6269800;22;20101;-76
2024/01/23 06:23:03;;;;;;;36.05;5.55;;;6.50;99.90;;;;;;6270203;22;20016;-76
2024/01/23 06:25:29;;;;;;;34.60;5.80;;;6.40;99.90;;;;;;6268865;22;20016;-76
2024/01/23 06:27:55;;;;;;;32.63;6.28;;;6.40;99.90;;;;;;6268463;22;20046;-76
2024/01/23 06:30:21;;;;;;;36.13;6.32;;;6.30;99.90;;;;;;6268744;22;20294;-76
2024/01/23 06:32:46;;;;;;;40.85;6.20;;;6.40;99.90;;;;;;6268997;22;20604;-76
2024/01/23 06:35:12;;;;;;;39.00;6.40;;;6.30;99.90;;;;;;6268372;22;20019;-76
2024/01/23 06:37:37;;;;;;;33.90;5.73;;;6.30;99.90;;;;;;6268168;22;20448;-76
2024/01/23 06:40:04;;;;;;;33.63;5.22;;;6.20;99.90;;;;;;6268813;22;20318;-76
2024/01/23 06:42:30;;;;;;;;;;;6.20;99.90;;;;;;6270370;22;20081;-76
2024/01/23 06:44:55;;;;;;;33.35;5.78;;;6.20;99.90;;;;;;6268713;22;19915;-76
2024/01/23 06:47:21;;;;;;;41.22;6.78;;;6.20;99.90;;;;;;6268848;22;20020;-76
2024/01/23 06:49:46;;;;;;;27.20;5.28;;;6.10;99.90;;;;;;6268197;22;20417;-75
2024/01/23 06:52:12;;;;;;;25.25;4.97;;;6.20;99.90;;;;;;6269884;22;20003;-75
2024/01/23 06:54:37;;;;;;;25.13;4.95;;;6.10;99.90;;;;;;6268599;22;20054;-76
2024/01/23 06:57:03;;;;;;;34.63;5.57;;;6.10;99.90;;;;;;6242776;22;20012;-76
2024/01/23 06:59:29;;;;;;;35.47;6.20;;;6.10;99.90;;;;;;6269671;22;20391;-76
2024/01/23 07:01:55;;;;;;;28.83;5.30;;;6.10;99.90;;;;;;6269270;22;20028;-76
2024/01/23 07:04:21;;;;;;;33.85;6.32;;;6.10;99.90;;;;;;6269528;22;20020;-77
2024/01/23 07:06:46;;;;;;;38.85;6.38;;;6.10;99.90;;;;;;6266716;22;20504;-77
2024/01/23 07:09:12;;;;;;;30.38;5.35;;;6.00;99.90;;;;;;6268283;22;20018;-77
2024/01/23 07:11:41;;;;;;;33.30;5.80;;;6.00;99.90;;;;;;6269193;22;20114;-77
2024/01/23 07:14:07;;;;;;;31.00;5.57;;;6.00;99.90;;;;;;6268375;22;20305;-77
2024/01/23 07:16:33;;;;;;;35.78;5.65;;;6.00;99.90;;;;;;6269271;22;20094;-76
2024/01/23 07:18:58;;;;;;;32.60;5.35;;;5.90;99.90;;;;;;6268565;22;20541;-78
2024/01/23 07:21:24;;;;;;;35.37;5.50;;;6.00;99.90;;;;;;6269258;22;20026;-77
2024/01/23 07:23:49;;;;;;;36.03;6.75;;;5.90;99.90;;;;;;6270785;22;20226;-77
2024/01/23 07:26:15;;;;;;;45.22;6.88;;;6.00;99.90;;;;;;6270886;22;20111;-77
2024/01/23 07:28:41;;;;;;;34.42;6.20;;;6.00;99.90;;;;;;6268508;22;20523;-77
2024/01/23 07:31:06;;;;;;;34.63;6.37;;;6.00;99.90;;;;;;6268835;22;20467;-77
2024/01/23 07:33:32;;;;;;;33.13;6.05;;;6.00;99.90;;;;;;6268426;22;20061;-77
2024/01/23 07:35:57;;;;;;;29.83;4.83;;;6.00;99.90;;;;;;6270098;22;20015;-77
2024/01/23 07:38:23;;;;;;;32.70;6.07;;;6.00;99.90;;;;;;6268256;22;20238;-77
2024/01/23 07:40:49;;;;;;;31.70;4.93;;;6.00;99.90;;;;;;6268997;22;20069;-77
2024/01/23 07:43:17;;;;;;;40.58;5.80;;;6.00;99.90;;;;;;6270520;22;20022;-77
2024/01/23 07:45:43;;;;;;;34.03;5.95;;;6.00;99.90;;;;;;6268292;22;20025;-77
2024/01/23 07:48:08;;;;;;;38.17;6.20;;;5.90;99.90;;;;;;6268349;22;20015;-77
2024/01/23 07:50:34;;;;;;;41.47;6.00;;;5.90;99.90;;;;;;6269011;22;20008;-77
2024/01/23 07:52:59;;;;;;;30.00;6.45;;;5.90;99.90;;;;;;6268940;22;20016;-77
2024/01/23 07:55:25;;;;;;;39.97;5.90;;;5.90;99.90;;;;;;6268975;22;20329;-77
2024/01/23 07:57:50;;;;;;;34.60;5.83;;;6.00;99.90;;;;;;6268539;22;20251;-77
2024/01/23 08:00:18;;;;;;;34.75;5.82;;;5.90;99.90;;;;;;6268332;22;20023;-77
2024/01/23 08:02:44;;;;;;;30.17;5.63;;;5.90;99.90;;;;;;6270850;22;20024;-77
2024/01/23 08:05:10;;;;;;;;;;;5.90;99.90;;;;;;6270672;22;20464;-77
2024/01/23 08:07:37;;;;;;;32.72;5.97;;;5.90;99.90;;;;;;6270113;22;19919;-77
2024/01/23 08:10:03;;;;;;;36.67;6.05;;;5.90;99.90;;;;;;6270394;22;20015;-77
2024/01/23 08:12:29;;;;;;;37.45;5.45;;;5.90;99.90;;;;;;6270093;22;20019;-77
2024/01/23 08:14:54;;;;;;;34.83;5.03;;;5.90;99.90;;;;;;6270158;22;20095;-77
2024/01/23 08:17:20;;;;;;;41.72;6.32;;;6.00;99.90;;;;;;6270631;22;20019;-77
2024/01/23 08:19:45;;;;;;;33.83;6.17;;;6.00;99.90;;;;;;6245333;22;20016;-77
2024/01/23 08:22:11;;;;;;;38.30;6.15;;;6.00;99.90;;;;;;6272476;22;20296;-77
2024/01/23 08:24:37;;;;;;;32.95;6.03;;;6.00;99.90;;;;;;6245122;22;20029;-77
2024/01/23 08:27:03;;;;;;;35.88;5.53;;;6.00;99.90;;;;;;6272737;22;20038;-77
2024/01/23 08:29:29;;;;;;;;;;;6.00;99.90;;;;;;6271980;22;20091;-77
2024/01/23 08:31:54;;;;;;;37.53;6.10;;;6.00;99.90;;;;;;6272517;22;19915;-77
2024/01/23 08:34:20;;;;;;;40.85;6.25;;;6.00;99.90;;;;;;6270802;22;20091;-77
2024/01/23 08:36:45;;;;;;;36.38;5.40;;;6.00;99.90;;;;;;6270530;22;20018;-77
2024/01/23 08:39:11;;;;;;;27.90;4.63;;;6.00;99.90;;;;;;6270282;22;20019;-77
2024/01/23 08:41:36;;;;;;;38.92;5.80;;;6.00;99.90;;;;;;6270523;22;20441;-77
2024/01/23 08:44:02;;;;;;;34.70;6.57;;;6.10;99.90;;;;;;6267843;22;20028;-77
2024/01/23 08:46:29;;;;;;;34.50;5.30;;;6.10;99.90;;;;;;6272146;22;20227;-77
2024/01/23 08:48:54;;;;;;;38.35;5.55;;;6.10;99.90;;;;;;6270365;22;20433;-77
2024/01/23 08:51:24;;;;;;;37.17;6.43;;;6.10;99.90;;;;;;6270319;22;20026;-77
2024/01/23 08:53:50;;;;;;;31.60;5.72;;;6.10;99.90;;;;;;6270226;22;20012;-76
2024/01/23 08:56:23;;;;;;;;;;;6.10;99.90;;;;;;6270980;22;20011;-76
2024/01/23 08:58:49;;;;;;;35.13;6.00;;;6.10;99.90;;;;;;6269091;22;19961;-75
2024/01/23 09:01:15;;;;;;;32.70;5.20;;;6.20;99.90;;;;;;6270374;22;20015;-78
2024/01/23 09:03:41;;;;;;;34.92;5.88;;;6.20;99.90;;;;;;6270150;22;20444;-78
2024/01/23 09:06:07;;;;;;;33.92;5.63;;;6.20;99.90;;;;;;6269835;22;20069;-76
2024/01/23 09:08:32;;;;;;;33.13;5.18;;;6.20;99.90;;;;;;6269213;22;20452;-76
2024/01/23 09:10:58;;;;;;;34.28;5.68;;;6.30;99.90;;;;;;6244344;22;20019;-77
2024/01/23 09:13:24;;;;;;;39.58;5.82;;;6.30;99.90;;;;;;6269041;22;20012;-77
2024/01/23 09:15:49;;;;;;;29.10;5.18;;;6.30;99.90;;;;;;6270245;22;20015;-77
2024/01/23 09:18:15;;;;;;;38.15;6.07;;;6.30;99.90;;;;;;6270155;22;20019;-76
2024/01/23 09:20:41;;;;;;;26.80;5.45;;;6.30;99.90;;;;;;6270140;22;20078;-77
2024/01/23 09:23:07;;;;;;;29.25;6.15;;;6.30;99.90;;;;;;6269852;22;20026;-76
2024/01/23 09:25:33;;;;;;;34.30;5.78;;;6.30;99.90;;;;;;6269977;22;20011;-77
2024/01/23 09:27:58;;;;;;;31.80;5.65;;;6.40;99.90;;;;;;6268870;22;20026;-76
2024/01/23 09:30:24;;;;;;;34.45;5.32;;;6.40;99.90;;;;;;6269874;22;20048;-78
2024/01/23 09:32:50;;;;;;;33.33;6.03;;;6.50;99.90;;;;;;6270007;22;20012;-79
2024/01/23 09:35:15;;;;;;;38.40;6.93;;;6.50;99.90;;;;;;6269662;22;20012;-76
2024/01/23 09:37:41;;;;;;;23.13;5.00;;;6.50;99.90;;;;;;6268965;22;20020;-77
2024/01/23 09:40:10;;;;;;;31.38;5.88;;;6.50;99.90;;;;;;6270028;22;20020;-78
2024/01/23 09:42:39;;;;;;;36.22;5.50;;;6.60;99.90;;;;;;6269031;22;20026;-76
2024/01/23 09:45:14;;;;;;;35.40;6.10;;;6.60;99.90;;;;;;6269848;22;20019;-77
2024/01/23 09:47:42;;;;;;;35.30;5.68;;;6.70;99.90;;;;;;6269736;22;20087;-76
2024/01/23 09:50:11;;;;;;;34.85;5.82;;;6.70;99.90;;;;;;6271560;22;20027;-77
2024/01/23 09:52:38;;;;;;;34.00;5.65;;;6.80;99.90;;;;;;6269667;22;20026;-77
2024/01/23 09:55:05;;;;;;;32.42;6.03;;;6.80;99.90;;;;;;6269946;22;20493;-77
2024/01/23 09:57:32;;;;;;;37.90;6.80;;;6.90;99.90;;;;;;6270450;22;20054;-77
2024/01/23 09:59:57;;;;;;;30.48;5.47;;;6.90;99.90;;;;;;6269705;22;20023;-77
2024/01/23 10:02:24;;;;;;;38.08;6.57;;;7.00;99.90;;;;;;6244163;22;20038;-77
2024/01/23 10:04:51;;;;;;;;;;;7.00;99.90;;;;;;6270065;22;20015;-76
2024/01/23 10:07:16;;;;;;;34.63;6.43;;;7.00;99.90;;;;;;6268827;22;20405;-76
2024/01/23 10:09:48;;;;;;;24.98;4.78;;;7.00;99.90;;;;;;6243491;22;20024;-77
2024/01/23 10:12:15;;;;;;;28.38;5.88;;;7.00;99.90;;;;;;6268207;22;20016;-75
2024/01/23 10:14:43;;;;;;;32.17;6.22;;;7.10;99.90;;;;;;6269515;22;20050;-76
2024/01/23 10:17:10;;;;;;;33.80;6.03;;;7.10;99.90;;;;;;6269528;22;20012;-77
2024/01/23 10:19:37;;;;;;;30.13;4.82;;;7.20;99.90;;;;;;6269861;22;20464;-77
2024/01/23 10:22:03;;;;;;;;;;;7.30;99.90;;;;;;6272176;22;20072;-76
2024/01/23 10:24:29;;;;;;;38.97;6.10;;;7.30;99.90;;;;;;6271345;22;19915;-76
2024/01/23 10:26:55;;;;;;;32.90;5.72;;;7.40;99.90;;;;;;6270816;22;20004;-76
2024/01/23 10:29:22;;;;;;;33.80;6.35;;;7.40;99.90;;;;;;6268872;22;20041;-77
2024/01/23 10:31:47;;;;;;;31.33;5.72;;;7.50;99.90;;;;;;6244023;22;20016;-76
2024/01/23 10:34:13;;;;;;;36.47;5.87;;;7.50;99.90;;;;;;6269426;22;20018;-77
2024/01/23 10:36:42;;;;;;;31.77;6.05;;;7.50;99.90;;;;;;6269225;22;20724;-76
2024/01/23 10:39:10;;;;;;;35.45;5.97;;;7.50;99.90;;;;;;6270876;22;20096;-77
2024/01/23 10:41:36;;;;;;;28.85;5.40;;;7.60;99.90;;;;;;6270615;22;20692;-77
2024/01/23 10:44:03;;;;;;;34.50;5.95;;;7.60;99.90;;;;;;6268785;22;20026;-77
2024/01/23 10:46:29;;;;;;;23.13;4.55;;;7.70;99.90;;;;;;6269261;22;20565;-76
2024/01/23 10:48:55;;;;;;;33.08;6.05;;;7.80;99.90;;;;;;6269249;22;20107;-77
2024/01/23 10:51:23;;;;;;;42.17;6.28;;;7.80;99.90;;;;;;6269226;22;20115;-77
2024/01/23 10:54:01;;;;;;;26.08;5.45;;;7.90;99.90;;;;;;6269010;22;20047;-77
2024/01/23 10:56:39;;;;;;;24.88;5.63;;;8.00;99.90;;;;;;6268862;22;20019;-77
2024/01/23 10:59:16;;;;;;;31.02;5.78;;;8.00;99.90;;;;;;6268731;22;20015;-77
2024/01/23 11:01:44;;;;;;;31.20;5.90;;;8.00;99.90;;;;;;6271069;22;20016;-77
2024/01/23 11:04:10;;;;;;;27.33;4.60;;;8.20;99.90;;;;;;6269004;22;20019;-77
2024/01/23 11:06:46;;;;;;;34.88;6.53;;;8.40;99.90;;;;;;6269342;22;20042;-77
2024/01/23 11:09:20;;;;;;;27.75;5.45;;;8.40;99.90;;;;;;6242390;22;20073;-77
2024/01/23 11:12:29;;;;;;;29.00;5.10;;;8.40;99.90;;;;;;6267291;22;20020;-77
2024/01/23 11:15:00;;;;;;;24.48;5.32;;;8.40;99.90;;;;;;6181390;23;20098;-77
2024/01/23 11:17:31;;;;;;;24.42;4.40;;;8.40;99.90;;;;;;6181570;23;20012;-77
2024/01/23 11:20:13;;;;;;;27.67;5.03;;;8.40;99.90;;;;;;6181481;23;20055;-76
2024/01/23 11:22:40;;;;;;;31.48;5.25;;;8.40;99.90;;;;;;6181565;23;20017;-77
2024/01/23 11:25:05;;;;;;;;;;;8.40;99.90;;;;;;6206764;23;20389;-77
2024/01/23 11:27:33;;;;;;;31.40;5.38;;;8.30;99.90;;;;;;6179818;23;20047;-76
2024/01/23 11:30:00;;;;;;;28.88;4.72;;;8.30;99.90;;;;;;6180606;23;20416;-75
2024/01/23 11:32:28;;;;;;;25.70;4.90;;;8.20;99.90;;;;;;6180345;23;20048;-76
2024/01/23 11:35:03;;;;;;;31.40;5.22;;;8.20;99.90;;;;;;6180799;23;20148;-76
2024/01/23 11:37:32;;;;;;;23.58;4.32;;;8.30;99.90;;;;;;6181400;23;20027;-76
2024/01/23 11:40:05;;;;;;;21.80;4.72;;;8.40;99.90;;;;;;6182674;23;20096;-76
2024/01/23 11:42:49;;;;;;;28.05;4.72;;;8.30;99.90;;;;;;6208115;23;20025;-76
2024/01/23 11:45:28;;;;;;;23.17;4.38;;;8.50;99.90;;;;;;6208772;22;20019;-76
2024/01/23 11:47:59;;;;;;;23.45;4.60;;;8.70;99.90;;;;;;6271088;22;20416;-76
2024/01/23 11:50:27;;;;;;;28.25;5.07;;;8.80;99.90;;;;;;6272776;22;20015;-76
2024/01/23 11:52:55;;;;;;;27.88;5.63;;;8.80;99.90;;;;;;6271786;22;20023;-76
2024/01/23 11:55:21;;;;;;;18.63;4.00;;;8.60;99.90;;;;;;6269481;22;20018;-78
2024/01/23 11:57:52;;;;;;;24.52;4.47;;;8.60;99.90;;;;;;6269598;22;20145;-76
2024/01/23 12:00:19;;;;;;;23.45;5.13;;;8.50;99.90;;;;;;6270107;22;20049;-75
2024/01/23 12:02:46;;;;;;;28.40;4.75;;;8.30;99.90;;;;;;6270205;22;20016;-76
2024/01/23 12:05:13;;;;;;;28.25;5.07;;;8.20;99.90;;;;;;6269893;22;20019;-76
2024/01/23 12:07:43;;;;;;;25.95;4.53;;;8.20;99.90;;;;;;6243986;22;20023;-76
2024/01/23 12:10:14;;;;;;;22.08;4.90;;;8.40;99.90;;;;;;6268451;22;20015;-76
2024/01/23 12:12:40;;;;;;;26.33;4.85;;;8.60;99.90;;;;;;6267729;22;20445;-76
2024/01/23 12:15:07;;;;;;;28.52;4.88;;;8.70;99.90;;;;;;6269322;22;20089;-77
2024/01/23 12:17:34;;;;;;;29.65;5.05;;;8.60;99.90;;;;;;6271451;22;20058;-77
2024/01/23 12:20:05;;;;;;;24.90;4.22;;;8.80;99.90;;;;;;6271915;22;20018;-77
2024/01/23 12:22:31;;;;;;;21.73;4.18;;;8.60;99.90;;;;;;6269717;22;20023;-76
2024/01/23 12:24:57;;;;;;;28.13;5.78;;;8.60;99.90;;;;;;6270257;22;20086;-76
2024/01/23 12:27:25;;;;;;;29.70;4.57;;;8.60;99.90;;;;;;6269821;22;20018;-77
2024/01/23 12:29:51;;;;;;;17.95;4.13;;;8.70;99.90;;;;;;6270330;22;20043;-76
2024/01/23 12:32:17;;;;;;;20.27;4.30;;;8.70;99.90;;;;;;6270448;22;20065;-76
2024/01/23 12:34:47;;;;;;;25.40;4.53;;;8.90;99.90;;;;;;6268618;22;20016;-76
2024/01/23 12:37:12;;;;;;;25.63;5.25;;;9.00;99.90;;;;;;6268048;22;20111;-76
2024/01/23 12:39:38;;;;;;;23.55;4.65;;;8.90;99.90;;;;;;6268421;22;20041;-77
2024/01/23 12:42:04;;;;;;;19.63;4.32;;;8.90;99.90;;;;;;6268965;22;20019;-76
2024/01/23 12:44:30;;;;;;;22.13;4.60;;;8.90;99.90;;;;;;6268203;22;20090;-76
2024/01/23 12:46:56;;;;;;;22.55;4.32;;;8.90;99.90;;;;;;6271274;22;20004;-76